Aeroporto :
LOGIN :

Iscrizione | Disclaimer

   EN    FR    IT 

 










Sommario :    VFR   VFR Marginale   IFR   IFR Intensivo   IFR Molto Intensivo
Visibilità : 
Base nubi : 
>= 8 km
>= 3000ft
5 / 8 km
1000 / 3000 ft
1500m / 5 km
500 / 1000 ft
800 / 1500m
200 / 500 ft
< 800m
< 200 ft
Simboli :   Temporali  Nebbia  Neve Forte  Precipitazioni Forti  Vento > 20 kt
SIGMETs :   Varie  Temporali  Ghiacco  Turbolenza  Onda orograficha  Ceneri Vulcaniche






- Altitudine del aeroporto : 11 ft
- Codice IATA : MJV


LELC - Murcia San Javier

ULTIMO METAR :
  • 041000Z 09006KT 040V120 9999 BKN023 17/12 Q1020 NOSIG

METARs OBSOLETI :
  • 040930Z 08007KT 020V120 9999 BKN023 17/11 Q1020 NOSIG
  • 040900Z 06006KT 350V090 9999 BKN020 16/12 Q1020 NOSIG
  • 040830Z 04008KT 010V070 9999 FEW028 16/13 Q1019 NOSIG
  • 040800Z 03007KT 9999 FEW028 15/15 Q1019 NOSIG
  • 040730Z 02005KT 9999 FEW028 13/13 Q1019 NOSIG

TAF TAF LELC
Valido dal 04 a 06 ore il 05 a 06 ore UTC


040500Z 0406/0506 31004KT 9999 SCT020 TX19/0414Z TN10/0406Z
BECMG 0406/0409 08010KT
BECMG 0501/0503 35006KT



MetMap, La meteo Aeronautica in un colpo d'occhio ! - Copyright ORBIFLY Dicembre 2007 - Disclaimer

ORBIFLY MET'MAP TEAM :

Programmazione e sviluppo : Alexandra Zaïnal
Concezione : Baudouin d'Aumeries
Aiuto per la programmazione : Marc-Olivier Méhu
Supporto tecnico e logistico : Manuel Goepfert
Aiuto per la traduzione : Arnaldo La Scala

Contatto : metmap@orbifly.com




FONTI E CREDITI :

   NOAA